Time;durP1;ratioP1;P1;durP2;ratioP2;P2;SDS_P1;SDS_P2;PMS_P1;PMS_P2;Temp;Humidity;BMP_temperature;BMP_pressure;BME280_temperature;BME280_humidity;BME280_pressure;Samples;Min_cycle;Max_cycle;Signal;HPM_P1;HPM_P2
2023/12/17 00:00:38;;;;;;;;;;;;;;;;;;5077030;28;19943;-71
2023/12/17 00:03:04;;;;;;;;;;;;;;;;;;5077276;28;19916;-70
2023/12/17 00:05:30;;;;;;;;;;;;;;;;;;5076601;28;20007;-70
2023/12/17 00:07:56;;;;;;;;;;;;;;;;;;5077051;28;19916;-71
2023/12/17 00:10:22;;;;;;;;;;;;;;;;;;5075688;28;19908;-70
2023/12/17 00:12:48;;;;;;;;;;;;;;;;;;5076497;28;20368;-70
2023/12/17 00:15:14;;;;;;;;;;;;;;;;;;5075668;28;19909;-70
2023/12/17 00:17:40;;;;;;;;;;;;;;;;;;5077323;28;19908;-70
2023/12/17 00:20:05;;;;;;;;;;;;;;;;;;5075121;28;19931;-70
2023/12/17 00:22:31;;;;;;;;;;;;;;;;;;5076778;28;19912;-70
2023/12/17 00:24:57;;;;;;;;;;;;;;;;;;5076688;28;19913;-69
2023/12/17 00:27:24;;;;;;;;;;;;;;;;;;5076322;28;19908;-70
2023/12/17 00:29:50;;;;;;;;;;;;;;;;;;5076376;28;19920;-71
2023/12/17 00:32:16;;;;;;;;;;;;;;;;;;5076576;28;19909;-71
2023/12/17 00:34:42;;;;;;;;;;;;;;;;;;5076070;28;19974;-70
2023/12/17 00:37:08;;;;;;;;;;;;;;;;;;5076465;28;19914;-70
2023/12/17 00:39:34;;;;;;;;;;;;;;;;;;5076185;28;19909;-70
2023/12/17 00:42:00;;;;;;;;;;;;;;;;;;5076046;28;19934;-70
2023/12/17 00:44:26;;;;;;;;;;;;;;;;;;5076376;28;19908;-71
2023/12/17 00:46:51;;;;;;;;;;;;;;;;;;5076282;28;19915;-70
2023/12/17 00:49:17;;;;;;;;;;;;;;;;;;5075894;28;19908;-70
2023/12/17 00:51:43;;;;;;;;;;;;;;;;;;5076397;28;19955;-71
2023/12/17 00:54:09;;;;;;;;;;;;;;;;;;5076047;28;20058;-70
2023/12/17 00:56:35;;;;;;;;;;;;;;;;;;5075783;28;19919;-71
2023/12/17 00:59:01;;;;;;;;;;;;;;;;;;5074796;28;19915;-70
2023/12/17 01:01:27;;;;;;;;;;;;;;;;;;5075691;28;19908;-71
2023/12/17 01:03:53;;;;;;;;;;;;;;;;;;5075864;28;19909;-71
2023/12/17 01:06:19;;;;;;;;;;;;;;;;;;5074620;28;19909;-71
2023/12/17 01:08:45;;;;;;;;;;;;;;;;;;5075537;28;19912;-72
2023/12/17 01:11:11;;;;;;;;;;;;;;;;;;5075841;28;19909;-71
2023/12/17 01:13:37;;;;;;;;;;;;;;;;;;5075660;28;19916;-71
2023/12/17 01:16:04;;;;;;;;;;;;;;;;;;5075657;28;19915;-70
2023/12/17 01:18:30;;;;;;;;;;;;;;;;;;5075737;28;19909;-71
2023/12/17 01:20:56;;;;;;;;;;;;;;;;;;5075618;28;20369;-70
2023/12/17 01:23:22;;;;;;;;;;;;;;;;;;5074035;28;20053;-71
2023/12/17 01:25:48;;;;;;;;;;;;;;;;;;5074320;28;19909;-71
2023/12/17 01:28:14;;;;;;;;;;;;;;;;;;5075535;28;19942;-70
2023/12/17 01:30:40;;;;;;;;;;;;;;;;;;5075387;28;19923;-71
2023/12/17 01:33:06;;;;;;;;;;;;;;;;;;5073966;28;19919;-71
2023/12/17 01:35:32;;;;;;;;;;;;;;;;;;5075693;28;19908;-71
2023/12/17 01:37:58;;;;;;;;;;;;;;;;;;5074885;28;19909;-71
2023/12/17 01:40:24;;;;;;;;;;;;;;;;;;5075258;28;19972;-70
2023/12/17 01:42:50;;;;;;;;;;;;;;;;;;5075425;28;19915;-70
2023/12/17 01:45:16;;;;;;;;;;;;;;;;;;5074720;28;19908;-70
2023/12/17 01:47:42;;;;;;;;;;;;;;;;;;5075140;28;19962;-70
2023/12/17 01:50:08;;;;;;;;;;;;;;;;;;5075074;28;19909;-70
2023/12/17 01:52:34;;;;;;;;;;;;;;;;;;5073930;28;19986;-70
2023/12/17 01:55:00;;;;;;;;;;;;;;;;;;5074984;28;20365;-70
2023/12/17 01:57:26;;;;;;;;;;;;;;;;;;5074907;28;20388;-70
2023/12/17 01:59:52;;;;;;;;;;;;;;;;;;5074507;28;20371;-71
2023/12/17 02:02:17;;;;;;;;;;;;;;;;;;5073604;28;19970;-71
2023/12/17 02:04:43;;;;;;;;;;;;;;;;;;5074403;28;20396;-71
2023/12/17 02:07:09;;;;;;;;;;;;;;;;;;5073461;28;20314;-71
2023/12/17 02:09:35;;;;;;;;;;;;;;;;;;5074740;28;19912;-71
2023/12/17 02:12:01;;;;;;;;;;;;;;;;;;5074295;28;19912;-70
2023/12/17 02:14:27;;;;;;;;;;;;;;;;;;5074873;28;20357;-69
2023/12/17 02:16:53;;;;;;;;;;;;;;;;;;5074543;28;20365;-69
2023/12/17 02:19:19;;;;;;;;;;;;;;;;;;5074145;28;19909;-70
2023/12/17 02:21:45;;;;;;;;;;;;;;;;;;5074475;28;19919;-69
2023/12/17 02:24:12;;;;;;;;;;;;;;;;;;5074363;28;19947;-69
2023/12/17 02:26:38;;;;;;;;;;;;;;;;;;5072804;28;20280;-69
2023/12/17 02:29:04;;;;;;;;;;;;;;;;;;5074123;28;19923;-69
2023/12/17 02:31:30;;;;;;;;;;;;;;;;;;5074345;28;20276;-69
2023/12/17 02:33:56;;;;;;;;;;;;;;;;;;5073775;28;20041;-70
2023/12/17 02:36:22;;;;;;;;;;;;;;;;;;5074204;28;19909;-70
2023/12/17 02:38:48;;;;;;;;;;;;;;;;;;5074258;28;20025;-69
2023/12/17 02:41:14;;;;;;;;;;;;;;;;;;5073710;28;19909;-70
2023/12/17 02:43:40;;;;;;;;;;;;;;;;;;5074114;28;19909;-70
2023/12/17 02:46:05;;;;;;;;;;;;;;;;;;5072798;28;19934;-70
2023/12/17 02:48:33;;;;;;;;;;;;;;;;;;5072402;28;19917;-70
2023/12/17 02:50:59;;;;;;;;;;;;;;;;;;5074108;28;19991;-70
2023/12/17 02:53:24;;;;;;;;;;;;;;;;;;5073894;28;20127;-69
2023/12/17 02:55:50;;;;;;;;;;;;;;;;;;5073489;28;19908;-71
2023/12/17 02:58:16;;;;;;;;;;;;;;;;;;5073906;28;19908;-69
2023/12/17 03:00:42;;;;;;;;;;;;;;;;;;5074023;28;19909;-71
2023/12/17 03:03:08;;;;;;;;;;;;;;;;;;5071283;28;19912;-71
2023/12/17 03:05:34;;;;;;;;;;;;;;;;;;5072597;28;20380;-71
2023/12/17 03:08:00;;;;;;;;;;;;;;;;;;5073560;28;20276;-71
2023/12/17 03:10:26;;;;;;;;;;;;;;;;;;5073805;28;20395;-71
2023/12/17 03:12:52;;;;;;;;;;;;;;;;;;5072439;28;19919;-71
2023/12/17 03:15:18;;;;;;;;;;;;;;;;;;5073403;28;19931;-71
2023/12/17 03:17:44;;;;;;;;;;;;;;;;;;5073778;28;19935;-71
2023/12/17 03:20:10;;;;;;;;;;;;;;;;;;5073766;28;19908;-71
2023/12/17 03:22:36;;;;;;;;;;;;;;;;;;5072130;28;19936;-71
2023/12/17 03:25:02;;;;;;;;;;;;;;;;;;5073671;28;20280;-69
2023/12/17 03:27:28;;;;;;;;;;;;;;;;;;5073626;28;19908;-70
2023/12/17 03:29:54;;;;;;;;;;;;;;;;;;5073151;28;19982;-69
2023/12/17 03:32:20;;;;;;;;;;;;;;;;;;5073472;28;20366;-69
2023/12/17 03:34:46;;;;;;;;;;;;;;;;;;5073555;28;19909;-69
2023/12/17 03:37:12;;;;;;;;;;;;;;;;;;5073108;28;19909;-69
2023/12/17 03:39:38;;;;;;;;;;;;;;;;;;5073501;28;20001;-70
2023/12/17 03:42:04;;;;;;;;;;;;;;;;;;5073536;28;20348;-70
2023/12/17 03:44:30;;;;;;;;;;;;;;;;;;5073071;28;19943;-70
2023/12/17 03:46:56;;;;;;;;;;;;;;;;;;5073467;28;19909;-70
2023/12/17 03:49:21;;;;;;;;;;;;;;;;;;5072224;28;19913;-70
2023/12/17 03:51:47;;;;;;;;;;;;;;;;;;5071736;28;19912;-70
2023/12/17 03:54:13;;;;;;;;;;;;;;;;;;5073413;28;19916;-69
2023/12/17 03:56:39;;;;;;;;;;;;;;;;;;5073422;28;19916;-71
2023/12/17 03:59:05;;;;;;;;;;;;;;;;;;5073022;28;19912;-70
2023/12/17 04:01:31;;;;;;;;;;;;;;;;;;5073366;28;19908;-70
2023/12/17 04:03:57;;;;;;;;;;;;;;;;;;5073313;28;20268;-70
2023/12/17 04:06:23;;;;;;;;;;;;;;;;;;5072918;28;19909;-69
2023/12/17 04:08:52;;;;;;;;;;;;;;;;;;5071970;28;19951;-70
2023/12/17 04:11:19;;;;;;;;;;;;;;;;;;5072836;28;19915;-70
2023/12/17 04:13:45;;;;;;;;;;;;;;;;;;5073101;28;20414;-71
2023/12/17 04:16:11;;;;;;;;;;;;;;;;;;5076814;28;19999;-70
2023/12/17 04:18:37;;;;;;;;;;;;;;;;;;5076400;28;19916;-70
2023/12/17 04:21:03;;;;;;;;;;;;;;;;;;5075485;28;20386;-70
2023/12/17 04:23:29;;;;;;;;;;;;;;;;;;5075416;28;19908;-70
2023/12/17 04:25:55;;;;;;;;;;;;;;;;;;5076242;28;19958;-70
2023/12/17 04:28:21;;;;;;;;;;;;;;;;;;5075171;28;19908;-70
2023/12/17 04:30:47;;;;;;;;;;;;;;;;;;5075308;28;19923;-70
2023/12/17 04:33:12;;;;;;;;;;;;;;;;;;5074814;28;19917;-70
2023/12/17 04:35:38;;;;;;;;;;;;;;;;;;5076504;28;19908;-70
2023/12/17 04:38:04;;;;;;;;;;;;;;;;;;5076435;28;19996;-70
2023/12/17 04:40:30;;;;;;;;;;;;;;;;;;5076045;28;19909;-70
2023/12/17 04:42:56;;;;;;;;;;;;;;;;;;5076432;28;19908;-70
2023/12/17 04:45:22;;;;;;;;;;;;;;;;;;5076364;28;19916;-70
2023/12/17 04:47:48;;;;;;;;;;;;;;;;;;5075849;28;19979;-70
2023/12/17 04:50:14;;;;;;;;;;;;;;;;;;5076330;28;19977;-70
2023/12/17 04:52:40;;;;;;;;;;;;;;;;;;5076141;28;19920;-70
2023/12/17 04:55:06;;;;;;;;;;;;;;;;;;5075816;28;19913;-70
2023/12/17 04:57:32;;;;;;;;;;;;;;;;;;5076104;28;19954;-71
2023/12/17 05:00:00;;;;;;;;;;;;;;;;;;5074834;28;19908;-70
2023/12/17 05:02:26;;;;;;;;;;;;;;;;;;5075610;28;19909;-70
2023/12/17 05:04:52;;;;;;;;;;;;;;;;;;5075880;28;19909;-71
2023/12/17 05:07:18;;;;;;;;;;;;;;;;;;5075899;28;19959;-70
2023/12/17 05:09:44;;;;;;;;;;;;;;;;;;5075476;28;19931;-70
2023/12/17 05:12:10;;;;;;;;;;;;;;;;;;5075799;28;19913;-70
2023/12/17 05:14:36;;;;;;;;;;;;;;;;;;5075405;28;19912;-70
2023/12/17 05:17:02;;;;;;;;;;;;;;;;;;5075859;28;20383;-70
2023/12/17 05:19:28;;;;;;;;;;;;;;;;;;5074406;28;19916;-70
2023/12/17 05:21:54;;;;;;;;;;;;;;;;;;5074103;28;19909;-70
2023/12/17 05:24:20;;;;;;;;;;;;;;;;;;5075971;28;19924;-70
2023/12/17 05:26:46;;;;;;;;;;;;;;;;;;5074546;28;19951;-70
2023/12/17 05:29:12;;;;;;;;;;;;;;;;;;5075092;28;19921;-70
2023/12/17 05:31:38;;;;;;;;;;;;;;;;;;5075489;28;19909;-70
2023/12/17 05:34:08;;;;;;;;;;;;;;;;;;5075371;28;19959;-69
2023/12/17 05:36:34;;;;;;;;;;;;;;;;;;5075108;28;19998;-70
2023/12/17 05:39:00;;;;;;;;;;;;;;;;;;5075419;28;20357;-70
2023/12/17 05:41:26;;;;;;;;;;;;;;;;;;5075438;28;20279;-70
2023/12/17 05:43:52;;;;;;;;;;;;;;;;;;5075027;28;19954;-70
2023/12/17 05:46:18;;;;;;;;;;;;;;;;;;5075110;28;19909;-70
2023/12/17 05:48:44;;;;;;;;;;;;;;;;;;5073867;28;19947;-71
2023/12/17 05:51:10;;;;;;;;;;;;;;;;;;5073404;28;19955;-70
2023/12/17 05:53:36;;;;;;;;;;;;;;;;;;5074829;28;19916;-70
2023/12/17 05:56:02;;;;;;;;;;;;;;;;;;5074912;28;19909;-70
2023/12/17 05:58:28;;;;;;;;;;;;;;;;;;5074513;28;20011;-70
2023/12/17 06:00:56;;;;;;;;;;;;;;;;;;5074842;28;19916;-70
2023/12/17 06:03:22;;;;;;;;;;;;;;;;;;5074783;28;19915;-70
2023/12/17 06:05:47;;;;;;;;;;;;;;;;;;5074300;28;19998;-70
2023/12/17 06:08:13;;;;;;;;;;;;;;;;;;5074684;28;19931;-70
2023/12/17 06:10:39;;;;;;;;;;;;;;;;;;5074661;28;19908;-69
2023/12/17 06:13:05;;;;;;;;;;;;;;;;;;5074137;28;19924;-70
2023/12/17 06:15:31;;;;;;;;;;;;;;;;;;5074590;28;19908;-70
2023/12/17 06:17:57;;;;;;;;;;;;;;;;;;5074146;28;19908;-70
2023/12/17 06:20:25;;;;;;;;;;;;;;;;;;5074437;28;19909;-70
2023/12/17 06:22:52;;;;;;;;;;;;;;;;;;5073095;28;19908;-70
2023/12/17 06:25:18;;;;;;;;;;;;;;;;;;5072748;28;19909;-70
2023/12/17 06:27:44;;;;;;;;;;;;;;;;;;5074543;28;20003;-71
2023/12/17 06:30:10;;;;;;;;;;;;;;;;;;5074238;28;19921;-71
2023/12/17 06:32:36;;;;;;;;;;;;;;;;;;5072526;28;20315;-71
2023/12/17 06:35:02;;;;;;;;;;;;;;;;;;5074306;28;19999;-71
2023/12/17 06:37:28;;;;;;;;;;;;;;;;;;5072683;28;19908;-70
2023/12/17 06:39:54;;;;;;;;;;;;;;;;;;5073826;28;20379;-70
2023/12/17 06:42:20;;;;;;;;;;;;;;;;;;5074140;28;19909;-71
2023/12/17 06:44:46;;;;;;;;;;;;;;;;;;5072846;28;19908;-71
2023/12/17 06:47:12;;;;;;;;;;;;;;;;;;5072377;28;19963;-71
2023/12/17 06:49:38;;;;;;;;;;;;;;;;;;5074019;28;20010;-71
2023/12/17 06:52:04;;;;;;;;;;;;;;;;;;5074484;28;19920;-70
2023/12/17 06:54:30;;;;;;;;;;;;;;;;;;5073531;28;20383;-70
2023/12/17 06:56:56;;;;;;;;;;;;;;;;;;5072625;28;20380;-71
2023/12/17 06:59:22;;;;;;;;;;;;;;;;;;5073901;28;20315;-71
2023/12/17 07:01:48;;;;;;;;;;;;;;;;;;5073442;28;20281;-71
2023/12/17 07:04:14;;;;;;;;;;;;;;;;;;5073840;28;19908;-71
2023/12/17 07:06:40;;;;;;;;;;;;;;;;;;5073772;28;19909;-71
2023/12/17 07:09:07;;;;;;;;;;;;;;;;;;5073423;28;19909;-69
2023/12/17 07:11:33;;;;;;;;;;;;;;;;;;5072463;28;19936;-71
2023/12/17 07:13:59;;;;;;;;;;;;;;;;;;5072445;28;19966;-70
2023/12/17 07:16:25;;;;;;;;;;;;;;;;;;5073371;28;19919;-70
2023/12/17 07:18:51;;;;;;;;;;;;;;;;;;5074324;28;20341;-70
2023/12/17 07:21:17;;;;;;;;;;;;;;;;;;5073350;28;19909;-70
2023/12/17 07:23:43;;;;;;;;;;;;;;;;;;5073712;28;19951;-71
2023/12/17 07:26:09;;;;;;;;;;;;;;;;;;5073797;28;19962;-70
2023/12/17 07:28:35;;;;;;;;;;;;;;;;;;5071854;28;19913;-71
2023/12/17 07:31:01;;;;;;;;;;;;;;;;;;5073626;28;19912;-71
2023/12/17 07:33:27;;;;;;;;;;;;;;;;;;5073712;28;20332;-71
2023/12/17 07:35:53;;;;;;;;;;;;;;;;;;5073256;28;19947;-70
2023/12/17 07:38:19;;;;;;;;;;;;;;;;;;5073786;28;19908;-70
2023/12/17 07:40:45;;;;;;;;;;;;;;;;;;5072316;28;20360;-70
2023/12/17 07:43:11;;;;;;;;;;;;;;;;;;5073178;28;20364;-71
2023/12/17 07:45:37;;;;;;;;;;;;;;;;;;5074102;28;19955;-71
2023/12/17 07:48:02;;;;;;;;;;;;;;;;;;5073380;28;20361;-71
2023/12/17 07:50:28;;;;;;;;;;;;;;;;;;5074601;28;19909;-70
2023/12/17 07:52:55;;;;;;;;;;;;;;;;;;5076079;28;20003;-71
2023/12/17 07:55:21;;;;;;;;;;;;;;;;;;5077692;28;19915;-70
2023/12/17 07:57:46;;;;;;;;;;;;;;;;;;5076894;28;19909;-71
2023/12/17 08:00:13;;;;;;;;;;;;;;;;;;5077170;28;19912;-71
2023/12/17 08:02:39;;;;;;;;;;;;;;;;;;5077093;28;20353;-71
2023/12/17 08:05:05;;;;;;;;;;;;;;;;;;5075445;28;19966;-71
2023/12/17 08:07:31;;;;;;;;;;;;;;;;;;5077044;28;19963;-71
2023/12/17 08:09:58;;;;;;;;;;;;;;;;;;5077304;28;19948;-71
2023/12/17 08:12:24;;;;;;;;;;;;;;;;;;5076481;28;19908;-71
2023/12/17 08:14:49;;;;;;;;;;;;;;;;;;5076903;28;19919;-71
2023/12/17 08:17:15;;;;;;;;;;;;;;;;;;5076933;28;19966;-70
2023/12/17 08:19:42;;;;;;;;;;;;;;;;;;5076478;28;19909;-71
2023/12/17 08:22:08;;;;;;;;;;;;;;;;;;5077241;28;19908;-71
2023/12/17 08:24:34;;;;;;;;;;;;;;;;;;5076848;28;20349;-72
2023/12/17 08:27:00;;;;;;;;;;;;;;;;;;5076660;28;20325;-71
2023/12/17 08:29:26;;;;;;;;;;;;;;;;;;5076419;28;19943;-71
2023/12/17 08:31:52;;;;;;;;;;;;;;;;;;5076193;28;19909;-71
2023/12/17 08:34:18;;;;;;;;;;;;;;;;;;5076617;28;19917;-72
2023/12/17 08:36:44;;;;;;;;;;;;;;;;;;5075239;28;19909;-71
2023/12/17 08:39:11;;;;;;;;;;;;;;;;;;5076036;28;19915;-71
2023/12/17 08:41:37;;;;;;;;;;;;;;;;;;5076373;28;19908;-71
2023/12/17 08:44:03;;;;;;;;;;;;;;;;;;5076379;28;19961;-71
2023/12/17 08:46:29;;;;;;;;;;;;;;;;;;5074358;28;19916;-71
2023/12/17 08:48:55;;;;;;;;;;;;;;;;;;5074929;28;19912;-71
2023/12/17 08:51:21;;;;;;;;;;;;;;;;;;5076204;28;19915;-71
2023/12/17 08:53:47;;;;;;;;;;;;;;;;;;5075662;28;19979;-71
2023/12/17 08:56:13;;;;;;;;;;;;;;;;;;5076203;28;20288;-71
2023/12/17 08:58:39;;;;;;;;;;;;;;;;;;5076167;28;19912;-72
2023/12/17 09:01:05;;;;;;;;;;;;;;;;;;5075632;28;19919;-72
2023/12/17 09:03:31;;;;;;;;;;;;;;;;;;5076025;28;20397;-71
2023/12/17 09:05:57;;;;;;;;;;;;;;;;;;5074722;28;20327;-72
2023/12/17 09:08:23;;;;;;;;;;;;;;;;;;5075505;28;19916;-71
2023/12/17 09:10:49;;;;;;;;;;;;;;;;;;5075855;28;20358;-71
2023/12/17 09:13:15;;;;;;;;;;;;;;;;;;5075730;28;19963;-71
2023/12/17 09:15:41;;;;;;;;;;;;;;;;;;5075334;28;19909;-72
2023/12/17 09:18:07;;;;;;;;;;;;;;;;;;5074475;28;19913;-71
2023/12/17 09:20:33;;;;;;;;;;;;;;;;;;5075714;28;20423;-73
2023/12/17 09:22:59;;;;;;;;;;;;;;;;;;5075226;28;19970;-71
2023/12/17 09:25:25;;;;;;;;;;;;;;;;;;5075650;28;20011;-72
2023/12/17 09:27:51;;;;;;;;;;;;;;;;;;5075130;28;19908;-72
2023/12/17 09:30:17;;;;;;;;;;;;;;;;;;5075370;28;19920;-72
2023/12/17 09:32:44;;;;;;;;;;;;;;;;;;5075608;28;20300;-72
2023/12/17 09:35:10;;;;;;;;;;;;;;;;;;5075032;28;19951;-72
2023/12/17 09:37:36;;;;;;;;;;;;;;;;;;5075338;28;19954;-72
2023/12/17 09:40:02;;;;;;;;;;;;;;;;;;5075312;28;20370;-72
2023/12/17 09:42:29;;;;;;;;;;;;;;;;;;5074846;28;19933;-72
2023/12/17 09:44:55;;;;;;;;;;;;;;;;;;5073945;28;19913;-72
2023/12/17 09:47:20;;;;;;;;;;;;;;;;;;5075081;28;20004;-72
2023/12/17 09:49:46;;;;;;;;;;;;;;;;;;5074665;28;19912;-72
2023/12/17 09:52:12;;;;;;;;;;;;;;;;;;5073804;28;19915;-72
2023/12/17 09:54:38;;;;;;;;;;;;;;;;;;5074957;28;19917;-72
2023/12/17 09:57:04;;;;;;;;;;;;;;;;;;5074509;28;19909;-72
2023/12/17 09:59:30;;;;;;;;;;;;;;;;;;5074988;28;19908;-72
2023/12/17 10:01:56;;;;;;;;;;;;;;;;;;5074777;28;20003;-72
2023/12/17 10:04:22;;;;;;;;;;;;;;;;;;5074347;28;19939;-72
2023/12/17 10:06:48;;;;;;;;;;;;;;;;;;5073446;28;19909;-72
2023/12/17 10:09:14;;;;;;;;;;;;;;;;;;5074754;28;19909;-72
2023/12/17 10:11:40;;;;;;;;;;;;;;;;;;5074117;28;19908;-72
2023/12/17 10:14:06;;;;;;;;;;;;;;;;;;5074458;28;19923;-72
2023/12/17 10:16:32;;;;;;;;;;;;;;;;;;5074802;28;19908;-72
2023/12/17 10:18:58;;;;;;;;;;;;;;;;;;5074183;28;19909;-72
2023/12/17 10:21:24;;;;;;;;;;;;;;;;;;5074558;28;20253;-72
2023/12/17 10:23:50;;;;;;;;;;;;;;;;;;5074469;28;19962;-72
2023/12/17 10:26:16;;;;;;;;;;;;;;;;;;5074054;28;19942;-72
2023/12/17 10:28:42;;;;;;;;;;;;;;;;;;5074291;28;19923;-73
2023/12/17 10:31:08;;;;;;;;;;;;;;;;;;5073894;28;19990;-73
2023/12/17 10:33:34;;;;;;;;;;;;;;;;;;5074154;28;19916;-73
2023/12/17 10:36:00;;;;;;;;;;;;;;;;;;5074333;28;19908;-73
2023/12/17 10:38:26;;;;;;;;;;;;;;;;;;5074079;28;19924;-72
2023/12/17 10:40:52;;;;;;;;;;;;;;;;;;5074577;28;19909;-73
2023/12/17 10:43:18;;;;;;;;;;;;;;;;;;5074166;28;20410;-73
2023/12/17 10:45:44;;;;;;;;;;;;;;;;;;5073657;28;20284;-73
2023/12/17 10:48:10;;;;;;;;;;;;;;;;;;5074032;28;20277;-73
2023/12/17 10:50:36;;;;;;;;;;;;;;;;;;5073979;28;20347;-72
2023/12/17 10:53:02;;;;;;;;;;;;;;;;;;5073448;28;20365;-72
2023/12/17 10:55:28;;;;;;;;;;;;;;;;;;5073866;28;19912;-71
2023/12/17 10:57:54;;;;;;;;;;;;;;;;;;5074348;28;19909;-71
2023/12/17 11:00:20;;;;;;;;;;;;;;;;;;5073358;28;20368;-71
2023/12/17 11:02:45;;;;;;;;;;;;;;;;;;5074465;28;20310;-72
2023/12/17 11:05:11;;;;;;;;;;;;;;;;;;5073970;28;19908;-71
2023/12/17 11:07:37;;;;;;;;;;;;;;;;;;5073371;28;19908;-72
2023/12/17 11:10:03;;;;;;;;;;;;;;;;;;5074075;28;19909;-72
2023/12/17 11:12:30;;;;;;;;;;;;;;;;;;5072370;28;19916;-71
2023/12/17 11:14:56;;;;;;;;;;;;;;;;;;5073402;28;19913;-71
2023/12/17 11:17:22;;;;;;;;;;;;;;;;;;5073675;28;19958;-72
2023/12/17 11:19:48;;;;;;;;;;;;;;;;;;5073729;28;19909;-71
2023/12/17 11:22:14;;;;;;;;;;;;;;;;;;5073294;28;19908;-72
2023/12/17 11:24:40;;;;;;;;;;;;;;;;;;5075569;28;19912;-71
2023/12/17 11:27:06;;;;;;;;;;;;;;;;;;5077779;28;20353;-71
2023/12/17 11:29:33;;;;;;;;;;;;;;;;;;5077306;28;20437;-72
2023/12/17 11:31:59;;;;;;;;;;;;;;;;;;5078130;28;19908;-71
2023/12/17 11:34:24;;;;;;;;;;;;;;;;;;5077427;28;19928;-71
2023/12/17 11:36:51;;;;;;;;;;;;;;;;;;5076358;28;19940;-72
2023/12/17 11:39:17;;;;;;;;;;;;;;;;;;5077689;28;19915;-72
2023/12/17 11:41:43;;;;;;;;;;;;;;;;;;5077378;28;19909;-72
2023/12/17 11:44:09;;;;;;;;;;;;;;;;;;5076230;28;19958;-72
2023/12/17 11:46:35;;;;;;;;;;;;;;;;;;5077509;28;19963;-72
2023/12/17 11:49:03;;;;;;;;;;;;;;;;;;5077066;28;19946;-72
2023/12/17 11:51:29;;;;;;;;;;;;;;;;;;5077473;28;19923;-72
2023/12/17 11:53:55;;;;;;;;;;;;;;;;;;5077376;28;20334;-73
2023/12/17 11:56:21;;;;;;;;;;;;;;;;;;5076894;28;20041;-72
2023/12/17 11:58:47;;;;;;;;;;;;;;;;;;5077750;28;19908;-72
2023/12/17 12:01:13;;;;;;;;;;;;;;;;;;5077215;28;19987;-71
2023/12/17 12:03:39;;;;;;;;;;;;;;;;;;5076838;28;19912;-72
2023/12/17 12:06:09;;;;;;;;;;;;;;;;;;5077065;28;20422;-71
2023/12/17 12:08:35;;;;;;;;;;;;;;;;;;5075733;28;19961;-72
2023/12/17 12:11:04;;;;;;;;;;;;;;;;;;5076624;28;19912;-72
2023/12/17 12:13:30;;;;;;;;;;;;;;;;;;5076889;28;19916;-72
2023/12/17 12:15:55;;;;;;;;;;;;;;;;;;5076826;28;19909;-72
2023/12/17 12:18:22;;;;;;;;;;;;;;;;;;5076498;28;19916;-72
2023/12/17 12:20:47;;;;;;;;;;;;;;;;;;5076876;28;19908;-72
2023/12/17 12:23:13;;;;;;;;;;;;;;;;;;5076780;28;19916;-72
2023/12/17 12:25:39;;;;;;;;;;;;;;;;;;5076271;28;19909;-72
2023/12/17 12:28:06;;;;;;;;;;;;;;;;;;5076469;28;19912;-71
2023/12/17 12:30:32;;;;;;;;;;;;;;;;;;5076497;28;19916;-72
2023/12/17 12:32:58;;;;;;;;;;;;;;;;;;5076941;28;19958;-72
2023/12/17 12:35:29;;;;;;;;;;;;;;;;;;5076074;28;19912;-72
2023/12/17 12:37:56;;;;;;;;;;;;;;;;;;5076351;28;20349;-72
2023/12/17 12:40:22;;;;;;;;;;;;;;;;;;5076742;28;19908;-72
2023/12/17 12:42:48;;;;;;;;;;;;;;;;;;5076353;28;19909;-73
2023/12/17 12:45:13;;;;;;;;;;;;;;;;;;5076227;28;19916;-72
2023/12/17 12:47:39;;;;;;;;;;;;;;;;;;5076330;28;19911;-72
2023/12/17 12:50:05;;;;;;;;;;;;;;;;;;5076806;28;20011;-72
2023/12/17 12:52:31;;;;;;;;;;;;;;;;;;5076018;28;19916;-71
2023/12/17 12:56:21;;;;;;;;;;;;;;;;;;5092137;27;20360;-72
2023/12/17 13:00:29;;;;;;;;;;;;;;;;;;5091177;27;19923;-73
2023/12/17 13:02:54;;;;;;;;;;;;;;;;;;5091679;28;20350;-73
2023/12/17 13:05:22;;;;;;;;;;;;;;;;;;5091216;28;19908;-73
2023/12/17 13:08:55;;;;;;;;;;;;;;;;;;5091809;27;19923;-71
2023/12/17 13:11:21;;;;;;;;;;;;;;;;;;5091309;28;19958;-71
2023/12/17 13:17:26;;;;;;;;;;;;;;;;;;5091977;27;20269;-71
2023/12/17 13:19:52;;;;;;;;;;;;;;;;;;5090979;28;20003;-71
2023/12/17 13:22:18;;;;;;;;;;;;;;;;;;5091324;28;20273;-72
2023/12/17 13:24:44;;;;;;;;;;;;;;;;;;5091376;28;19908;-72
2023/12/17 13:27:59;;;;;;;;;;;;;;;;;;5090977;27;19912;-72
2023/12/17 13:30:25;;;;;;;;;;;;;;;;;;5091601;28;19912;-74
2023/12/17 13:35:05;;;;;;;;;;;;;;;;;;5091368;27;20380;-73
2023/12/17 13:37:30;;;;;;;;;;;;;;;;;;5091365;28;20003;-72
2023/12/17 13:39:56;;;;;;;;;;;;;;;;;;5091295;28;20307;-71
2023/12/17 13:42:22;;;;;;;;;;;;;;;;;;5090962;28;19912;-72
2023/12/17 13:45:09;;;;;;;;;;;;;;;;;;5112158;27;19922;-71
2023/12/17 13:47:35;;;;;;;;;;;;;;;;;;5111972;28;20002;-72
2023/12/17 13:50:02;;;;;;;;;;;;;;;;;;5111272;28;19908;-72
2023/12/17 13:53:19;;;;;;;;;;;;;;;;;;5091583;28;19923;-71
2023/12/17 13:55:45;;;;;;;;;;;;;;;;;;5090936;28;20373;-71
2023/12/17 13:58:26;;;;;;;;;;;;;;;;;;5092199;27;19922;-71
2023/12/17 14:00:52;;;;;;;;;;;;;;;;;;5091355;28;20292;-72
2023/12/17 14:03:20;;;;;;;;;;;;;;;;;;5090858;28;19908;-72
2023/12/17 14:06:31;;;;;;;;;;;;;;;;;;5091611;27;19916;-70
2023/12/17 14:08:57;;;;;;;;;;;;;;;;;;5090082;28;20432;-70
2023/12/17 14:11:23;;;;;;;;;;;;;;;;;;5089614;28;19962;-70
2023/12/17 14:13:49;;;;;;;;;;;;;;;;;;5091314;28;20361;-71
2023/12/17 14:16:22;;;;;;;;;;;;;;;;;;5090943;28;19920;-72
2023/12/17 14:18:48;;;;;;;;;;;;;;;;;;5090198;28;20307;-71
2023/12/17 14:21:14;;;;;;;;;;;;;;;;;;5091136;28;19908;-71
2023/12/17 14:23:40;;;;;;;;;;;;;;;;;;5090595;28;19942;-72
2023/12/17 14:26:06;;;;;;;;;;;;;;;;;;5091157;28;19917;-72
2023/12/17 14:28:32;;;;;;;;;;;;;;;;;;5091529;28;19908;-72
2023/12/17 14:30:58;;;;;;;;;;;;;;;;;;5090565;28;19999;-72
2023/12/17 14:33:24;;;;;;;;;;;;;;;;;;5090936;28;19909;-71
2023/12/17 14:35:50;;;;;;;;;;;;;;;;;;5091221;28;19915;-71
2023/12/17 14:38:16;;;;;;;;;;;;;;;;;;5090321;28;19908;-70
2023/12/17 14:40:42;;;;;;;;;;;;;;;;;;5090708;28;19962;-70
2023/12/17 14:43:08;;;;;;;;;;;;;;;;;;5090654;28;19908;-70
2023/12/17 14:45:34;;;;;;;;;;;;;;;;;;5088877;28;19916;-70
2023/12/17 14:48:00;;;;;;;;;;;;;;;;;;5090624;28;19913;-70
2023/12/17 14:50:31;;;;;;;;;;;;;;;;;;5090782;28;19915;-70
2023/12/17 14:52:57;;;;;;;;;;;;;;;;;;5088976;28;19912;-70
2023/12/17 14:55:23;;;;;;;;;;;;;;;;;;5090462;28;19973;-70
2023/12/17 14:57:50;;;;;;;;;;;;;;;;;;5090455;28;19999;-71
2023/12/17 15:00:16;;;;;;;;;;;;;;;;;;5090123;28;19932;-71
2023/12/17 15:02:42;;;;;;;;;;;;;;;;;;5090426;28;19969;-71
2023/12/17 15:05:08;;;;;;;;;;;;;;;;;;5099157;28;19920;-71
2023/12/17 15:07:34;;;;;;;;;;;;;;;;;;5110245;28;19967;-71
2023/12/17 15:10:00;;;;;;;;;;;;;;;;;;5110586;28;19908;-71
2023/12/17 15:12:26;;;;;;;;;;;;;;;;;;5110112;28;19908;-70
2023/12/17 15:14:52;;;;;;;;;;;;;;;;;;5110436;28;20046;-70
2023/12/17 15:17:18;;;;;;;;;;;;;;;;;;5100049;28;19947;-70
2023/12/17 15:19:47;;;;;;;;;;;;;;;;;;5096390;28;20326;-70
2023/12/17 15:22:13;;;;;;;;;;;;;;;;;;5096698;28;19908;-70
2023/12/17 15:24:39;;;;;;;;;;;;;;;;;;5078388;28;20376;-70
2023/12/17 15:27:05;;;;;;;;;;;;;;;;;;5096309;28;20364;-70
2023/12/17 15:29:31;;;;;;;;;;;;;;;;;;5096595;28;20351;-71
2023/12/17 15:31:57;;;;;;;;;;;;;;;;;;5096654;28;19936;-71
2023/12/17 15:34:23;;;;;;;;;;;;;;;;;;5096083;28;19908;-70
2023/12/17 15:36:49;;;;;;;;;;;;;;;;;;5096536;28;19908;-70
2023/12/17 15:39:15;;;;;;;;;;;;;;;;;;5096343;28;19994;-70
2023/12/17 15:41:41;;;;;;;;;;;;;;;;;;5095938;28;19916;-70
2023/12/17 15:44:07;;;;;;;;;;;;;;;;;;5096246;28;19954;-70
2023/12/17 15:46:33;;;;;;;;;;;;;;;;;;5096282;28;19912;-70
2023/12/17 15:48:59;;;;;;;;;;;;;;;;;;5095790;28;19915;-71
2023/12/17 15:51:25;;;;;;;;;;;;;;;;;;5096172;28;20284;-71
2023/12/17 15:53:51;;;;;;;;;;;;;;;;;;5096121;28;19916;-71
2023/12/17 15:56:17;;;;;;;;;;;;;;;;;;5095690;28;19914;-70
2023/12/17 15:58:43;;;;;;;;;;;;;;;;;;5096031;28;19944;-72
2023/12/17 16:01:09;;;;;;;;;;;;;;;;;;5095984;28;20389;-71
2023/12/17 16:03:35;;;;;;;;;;;;;;;;;;5095611;28;20330;-72
2023/12/17 16:06:01;;;;;;;;;;;;;;;;;;5095742;28;20027;-71
2023/12/17 16:08:27;;;;;;;;;;;;;;;;;;5095813;28;19908;-71
2023/12/17 16:10:53;;;;;;;;;;;;;;;;;;5077346;28;19920;-71
2023/12/17 16:13:19;;;;;;;;;;;;;;;;;;5095903;28;19908;-72
2023/12/17 16:15:45;;;;;;;;;;;;;;;;;;5095342;28;20382;-71
2023/12/17 16:18:11;;;;;;;;;;;;;;;;;;5096007;28;19991;-72
2023/12/17 16:20:37;;;;;;;;;;;;;;;;;;5095600;28;19912;-71
2023/12/17 16:23:03;;;;;;;;;;;;;;;;;;5095226;28;19908;-71
2023/12/17 16:25:29;;;;;;;;;;;;;;;;;;5077286;28;19969;-71
2023/12/17 16:27:55;;;;;;;;;;;;;;;;;;5076385;28;19908;-71
2023/12/17 16:30:21;;;;;;;;;;;;;;;;;;5094997;28;20325;-71
2023/12/17 16:32:47;;;;;;;;;;;;;;;;;;5095321;28;19977;-71
2023/12/17 16:35:13;;;;;;;;;;;;;;;;;;5095368;28;19914;-72
2023/12/17 16:37:39;;;;;;;;;;;;;;;;;;5094944;28;19908;-72
2023/12/17 16:40:05;;;;;;;;;;;;;;;;;;5095344;28;20006;-71
2023/12/17 16:42:31;;;;;;;;;;;;;;;;;;5095348;28;20003;-72
2023/12/17 16:44:57;;;;;;;;;;;;;;;;;;5094686;28;20010;-71
2023/12/17 16:47:23;;;;;;;;;;;;;;;;;;5095093;28;19912;-71
2023/12/17 16:49:49;;;;;;;;;;;;;;;;;;5095043;28;19915;-72